sensor_id;sensor_type;location;lat;lon;timestamp;temperature;humidity
10572;DHT22;5334;48.928;12.704;2023-04-23T00:01:36;13.10;99.90
10572;DHT22;5334;48.928;12.704;2023-04-23T00:04:04;13.00;99.90
10572;DHT22;5334;48.928;12.704;2023-04-23T00:06:33;13.10;99.90
10572;DHT22;5334;48.928;12.704;2023-04-23T00:09:00;13.20;99.90
10572;DHT22;5334;48.928;12.704;2023-04-23T00:11:26;13.20;99.90
10572;DHT22;5334;48.928;12.704;2023-04-23T00:13:52;13.20;99.90
10572;DHT22;5334;48.928;12.704;2023-04-23T00:16:19;13.20;99.90
10572;DHT22;5334;48.928;12.704;2023-04-23T00:18:45;13.20;99.90
10572;DHT22;5334;48.928;12.704;2023-04-23T00:21:11;13.20;99.90
10572;DHT22;5334;48.928;12.704;2023-04-23T00:23:38;13.20;99.90
10572;DHT22;5334;48.928;12.704;2023-04-23T00:26:04;13.30;99.90
10572;DHT22;5334;48.928;12.704;2023-04-23T00:28:30;13.20;99.90
10572;DHT22;5334;48.928;12.704;2023-04-23T00:30:55;13.20;99.90
10572;DHT22;5334;48.928;12.704;2023-04-23T00:33:21;13.10;99.90
10572;DHT22;5334;48.928;12.704;2023-04-23T00:35:47;13.10;99.90
10572;DHT22;5334;48.928;12.704;2023-04-23T00:38:13;13.10;99.90
10572;DHT22;5334;48.928;12.704;2023-04-23T00:40:39;13.10;99.90
10572;DHT22;5334;48.928;12.704;2023-04-23T00:43:05;13.20;99.90
10572;DHT22;5334;48.928;12.704;2023-04-23T00:45:31;13.20;99.90
10572;DHT22;5334;48.928;12.704;2023-04-23T00:47:57;13.20;99.90
10572;DHT22;5334;48.928;12.704;2023-04-23T00:50:23;13.20;99.90
10572;DHT22;5334;48.928;12.704;2023-04-23T00:52:48;13.10;99.90
10572;DHT22;5334;48.928;12.704;2023-04-23T00:55:14;13.10;99.90
10572;DHT22;5334;48.928;12.704;2023-04-23T00:57:40;13.10;99.90
10572;DHT22;5334;48.928;12.704;2023-04-23T01:00:07;13.10;99.90
10572;DHT22;5334;48.928;12.704;2023-04-23T01:02:34;13.10;99.90
10572;DHT22;5334;48.928;12.704;2023-04-23T01:05:03;13.00;99.90
10572;DHT22;5334;48.928;12.704;2023-04-23T01:07:31;13.00;99.90
10572;DHT22;5334;48.928;12.704;2023-04-23T01:09:58;12.90;99.90
10572;DHT22;5334;48.928;12.704;2023-04-23T01:12:25;12.80;99.90
10572;DHT22;5334;48.928;12.704;2023-04-23T01:14:51;12.80;99.90
10572;DHT22;5334;48.928;12.704;2023-04-23T01:17:17;12.70;99.90
10572;DHT22;5334;48.928;12.704;2023-04-23T01:19:43;12.70;99.90
10572;DHT22;5334;48.928;12.704;2023-04-23T01:22:10;12.70;99.90
10572;DHT22;5334;48.928;12.704;2023-04-23T01:24:37;12.70;99.90
10572;DHT22;5334;48.928;12.704;2023-04-23T01:27:03;12.70;99.90
10572;DHT22;5334;48.928;12.704;2023-04-23T01:29:29;12.70;99.90
10572;DHT22;5334;48.928;12.704;2023-04-23T01:31:56;12.70;99.90
10572;DHT22;5334;48.928;12.704;2023-04-23T01:34:22;12.80;99.90
10572;DHT22;5334;48.928;12.704;2023-04-23T01:36:48;12.80;99.90
10572;DHT22;5334;48.928;12.704;2023-04-23T01:39:14;12.90;99.90
10572;DHT22;5334;48.928;12.704;2023-04-23T01:41:40;12.90;99.90
10572;DHT22;5334;48.928;12.704;2023-04-23T01:44:06;12.90;99.90
10572;DHT22;5334;48.928;12.704;2023-04-23T01:46:32;12.80;99.90
10572;DHT22;5334;48.928;12.704;2023-04-23T01:48:57;12.60;99.90
10572;DHT22;5334;48.928;12.704;2023-04-23T01:51:24;12.50;99.90
10572;DHT22;5334;48.928;12.704;2023-04-23T01:53:50;12.50;99.90
10572;DHT22;5334;48.928;12.704;2023-04-23T01:56:18;12.40;99.90
10572;DHT22;5334;48.928;12.704;2023-04-23T01:58:46;12.40;99.90
10572;DHT22;5334;48.928;12.704;2023-04-23T02:01:12;12.40;99.90
10572;DHT22;5334;48.928;12.704;2023-04-23T02:03:37;12.40;99.90
10572;DHT22;5334;48.928;12.704;2023-04-23T02:06:03;12.50;99.90
10572;DHT22;5334;48.928;12.704;2023-04-23T02:08:29;12.50;99.90
10572;DHT22;5334;48.928;12.704;2023-04-23T02:10:55;12.50;99.90
10572;DHT22;5334;48.928;12.704;2023-04-23T02:13:22;12.60;99.90
10572;DHT22;5334;48.928;12.704;2023-04-23T02:15:47;12.60;99.90
10572;DHT22;5334;48.928;12.704;2023-04-23T02:18:13;12.60;99.90
10572;DHT22;5334;48.928;12.704;2023-04-23T02:20:38;12.70;99.90
10572;DHT22;5334;48.928;12.704;2023-04-23T02:23:06;12.70;99.90
10572;DHT22;5334;48.928;12.704;2023-04-23T02:25:32;12.70;99.90
10572;DHT22;5334;48.928;12.704;2023-04-23T02:27:58;12.80;99.90
10572;DHT22;5334;48.928;12.704;2023-04-23T02:30:30;12.80;99.90
10572;DHT22;5334;48.928;12.704;2023-04-23T02:32:56;12.90;99.90
10572;DHT22;5334;48.928;12.704;2023-04-23T02:35:21;12.90;99.90
10572;DHT22;5334;48.928;12.704;2023-04-23T02:37:49;12.90;99.90
10572;DHT22;5334;48.928;12.704;2023-04-23T02:40:15;13.00;99.90
10572;DHT22;5334;48.928;12.704;2023-04-23T02:42:41;13.00;99.90
10572;DHT22;5334;48.928;12.704;2023-04-23T02:45:07;13.00;99.90
10572;DHT22;5334;48.928;12.704;2023-04-23T02:47:33;13.10;99.90
10572;DHT22;5334;48.928;12.704;2023-04-23T02:49:58;13.10;99.90
10572;DHT22;5334;48.928;12.704;2023-04-23T02:52:27;13.10;99.90
10572;DHT22;5334;48.928;12.704;2023-04-23T02:54:53;13.10;99.90
10572;DHT22;5334;48.928;12.704;2023-04-23T02:57:18;13.10;99.90
10572;DHT22;5334;48.928;12.704;2023-04-23T02:59:44;13.00;99.90
10572;DHT22;5334;48.928;12.704;2023-04-23T03:02:10;12.90;99.90
10572;DHT22;5334;48.928;12.704;2023-04-23T03:04:36;12.90;99.90
10572;DHT22;5334;48.928;12.704;2023-04-23T03:07:02;12.80;99.90
10572;DHT22;5334;48.928;12.704;2023-04-23T03:09:27;12.80;99.90
10572;DHT22;5334;48.928;12.704;2023-04-23T03:11:53;12.70;99.90
10572;DHT22;5334;48.928;12.704;2023-04-23T03:14:19;12.70;99.90
10572;DHT22;5334;48.928;12.704;2023-04-23T03:16:45;12.70;99.90
10572;DHT22;5334;48.928;12.704;2023-04-23T03:19:10;12.70;99.90
10572;DHT22;5334;48.928;12.704;2023-04-23T03:21:36;12.70;99.90
10572;DHT22;5334;48.928;12.704;2023-04-23T03:24:01;12.70;99.90
10572;DHT22;5334;48.928;12.704;2023-04-23T03:26:27;12.70;99.90
10572;DHT22;5334;48.928;12.704;2023-04-23T03:28:53;12.80;99.90
10572;DHT22;5334;48.928;12.704;2023-04-23T03:31:18;12.80;99.90
10572;DHT22;5334;48.928;12.704;2023-04-23T03:33:44;12.90;99.90
10572;DHT22;5334;48.928;12.704;2023-04-23T03:36:10;12.90;99.90
10572;DHT22;5334;48.928;12.704;2023-04-23T03:38:35;13.00;99.90
10572;DHT22;5334;48.928;12.704;2023-04-23T03:41:01;13.00;99.90
10572;DHT22;5334;48.928;12.704;2023-04-23T03:43:27;12.90;99.90
10572;DHT22;5334;48.928;12.704;2023-04-23T03:45:52;13.00;99.90
10572;DHT22;5334;48.928;12.704;2023-04-23T03:48:18;13.00;99.90
10572;DHT22;5334;48.928;12.704;2023-04-23T03:50:45;13.00;99.90
10572;DHT22;5334;48.928;12.704;2023-04-23T03:53:10;13.00;99.90
10572;DHT22;5334;48.928;12.704;2023-04-23T03:55:36;12.90;99.90
10572;DHT22;5334;48.928;12.704;2023-04-23T03:58:02;12.80;99.90
10572;DHT22;5334;48.928;12.704;2023-04-23T04:00:28;12.80;99.90
10572;DHT22;5334;48.928;12.704;2023-04-23T04:02:53;12.80;99.90
10572;DHT22;5334;48.928;12.704;2023-04-23T04:05:20;12.80;99.90
10572;DHT22;5334;48.928;12.704;2023-04-23T04:07:46;12.80;99.90
10572;DHT22;5334;48.928;12.704;2023-04-23T04:10:11;12.80;99.90
10572;DHT22;5334;48.928;12.704;2023-04-23T04:12:37;12.80;99.90
10572;DHT22;5334;48.928;12.704;2023-04-23T04:15:04;12.80;99.90
10572;DHT22;5334;48.928;12.704;2023-04-23T04:17:30;12.80;99.90
10572;DHT22;5334;48.928;12.704;2023-04-23T04:19:56;12.80;99.90
10572;DHT22;5334;48.928;12.704;2023-04-23T04:22:21;12.70;99.90
10572;DHT22;5334;48.928;12.704;2023-04-23T04:24:47;12.70;99.90
10572;DHT22;5334;48.928;12.704;2023-04-23T04:27:13;12.60;99.90
10572;DHT22;5334;48.928;12.704;2023-04-23T04:29:39;12.60;99.90
10572;DHT22;5334;48.928;12.704;2023-04-23T04:32:08;12.60;99.90
10572;DHT22;5334;48.928;12.704;2023-04-23T04:34:34;12.70;99.90
10572;DHT22;5334;48.928;12.704;2023-04-23T04:37:00;12.70;99.90
10572;DHT22;5334;48.928;12.704;2023-04-23T04:39:26;12.70;99.90
10572;DHT22;5334;48.928;12.704;2023-04-23T04:41:52;12.80;99.90
10572;DHT22;5334;48.928;12.704;2023-04-23T04:44:18;12.80;99.90
10572;DHT22;5334;48.928;12.704;2023-04-23T04:46:44;12.90;99.90
10572;DHT22;5334;48.928;12.704;2023-04-23T04:49:10;12.90;99.90
10572;DHT22;5334;48.928;12.704;2023-04-23T04:51:37;12.90;99.90
10572;DHT22;5334;48.928;12.704;2023-04-23T04:54:03;12.90;99.90
10572;DHT22;5334;48.928;12.704;2023-04-23T04:56:29;12.90;99.90
10572;DHT22;5334;48.928;12.704;2023-04-23T04:58:55;12.90;99.90
10572;DHT22;5334;48.928;12.704;2023-04-23T05:01:21;12.90;99.90
10572;DHT22;5334;48.928;12.704;2023-04-23T05:03:49;12.90;99.90
10572;DHT22;5334;48.928;12.704;2023-04-23T05:06:15;13.00;99.90
10572;DHT22;5334;48.928;12.704;2023-04-23T05:08:41;13.00;99.90
10572;DHT22;5334;48.928;12.704;2023-04-23T05:11:07;13.10;99.90
10572;DHT22;5334;48.928;12.704;2023-04-23T05:13:33;13.20;99.90
10572;DHT22;5334;48.928;12.704;2023-04-23T05:15:59;13.10;99.90
10572;DHT22;5334;48.928;12.704;2023-04-23T05:18:24;13.10;99.90
10572;DHT22;5334;48.928;12.704;2023-04-23T05:20:50;13.00;99.90
10572;DHT22;5334;48.928;12.704;2023-04-23T05:23:16;12.90;99.90
10572;DHT22;5334;48.928;12.704;2023-04-23T05:25:43;12.90;99.90
10572;DHT22;5334;48.928;12.704;2023-04-23T05:28:08;12.90;99.90
10572;DHT22;5334;48.928;12.704;2023-04-23T05:30:34;12.90;99.90
10572;DHT22;5334;48.928;12.704;2023-04-23T05:33:00;12.90;99.90
10572;DHT22;5334;48.928;12.704;2023-04-23T05:35:25;13.00;99.90
10572;DHT22;5334;48.928;12.704;2023-04-23T05:37:52;13.10;99.90
10572;DHT22;5334;48.928;12.704;2023-04-23T05:40:17;13.10;99.90
10572;DHT22;5334;48.928;12.704;2023-04-23T05:42:43;13.20;99.90
10572;DHT22;5334;48.928;12.704;2023-04-23T05:45:09;13.20;99.90
10572;DHT22;5334;48.928;12.704;2023-04-23T05:47:35;13.30;99.90
10572;DHT22;5334;48.928;12.704;2023-04-23T05:50:01;13.30;99.90
10572;DHT22;5334;48.928;12.704;2023-04-23T05:52:27;13.30;99.90
10572;DHT22;5334;48.928;12.704;2023-04-23T05:54:55;13.30;99.90
10572;DHT22;5334;48.928;12.704;2023-04-23T05:57:21;13.30;99.90
10572;DHT22;5334;48.928;12.704;2023-04-23T05:59:47;13.20;99.90
10572;DHT22;5334;48.928;12.704;2023-04-23T06:02:12;13.20;99.90
10572;DHT22;5334;48.928;12.704;2023-04-23T06:04:38;13.20;99.90
10572;DHT22;5334;48.928;12.704;2023-04-23T06:07:05;13.20;99.90
10572;DHT22;5334;48.928;12.704;2023-04-23T06:09:31;13.20;99.90
10572;DHT22;5334;48.928;12.704;2023-04-23T06:11:56;13.30;99.90
10572;DHT22;5334;48.928;12.704;2023-04-23T06:14:22;13.30;99.90
10572;DHT22;5334;48.928;12.704;2023-04-23T06:16:48;13.30;99.90
10572;DHT22;5334;48.928;12.704;2023-04-23T06:19:13;13.30;99.90
10572;DHT22;5334;48.928;12.704;2023-04-23T06:21:39;13.40;99.90
10572;DHT22;5334;48.928;12.704;2023-04-23T06:24:05;13.40;99.90
10572;DHT22;5334;48.928;12.704;2023-04-23T06:26:32;13.50;99.90
10572;DHT22;5334;48.928;12.704;2023-04-23T06:28:58;13.50;99.90
10572;DHT22;5334;48.928;12.704;2023-04-23T06:31:23;13.60;99.90
10572;DHT22;5334;48.928;12.704;2023-04-23T06:33:50;13.60;99.90
10572;DHT22;5334;48.928;12.704;2023-04-23T06:36:15;13.70;99.90
10572;DHT22;5334;48.928;12.704;2023-04-23T06:38:41;13.80;99.90
10572;DHT22;5334;48.928;12.704;2023-04-23T06:41:06;13.80;99.90
10572;DHT22;5334;48.928;12.704;2023-04-23T06:43:32;13.80;99.90
10572;DHT22;5334;48.928;12.704;2023-04-23T06:45:59;13.80;99.90
10572;DHT22;5334;48.928;12.704;2023-04-23T06:48:24;13.90;99.90
10572;DHT22;5334;48.928;12.704;2023-04-23T06:50:50;13.90;99.90
10572;DHT22;5334;48.928;12.704;2023-04-23T06:53:16;13.90;99.90
10572;DHT22;5334;48.928;12.704;2023-04-23T06:55:42;14.00;99.90
10572;DHT22;5334;48.928;12.704;2023-04-23T06:58:08;14.00;99.90
10572;DHT22;5334;48.928;12.704;2023-04-23T07:00:34;14.10;99.90
10572;DHT22;5334;48.928;12.704;2023-04-23T07:02:59;14.20;99.90
10572;DHT22;5334;48.928;12.704;2023-04-23T07:05:25;14.30;99.90
10572;DHT22;5334;48.928;12.704;2023-04-23T07:07:51;14.40;99.90
10572;DHT22;5334;48.928;12.704;2023-04-23T07:10:17;14.40;99.90
10572;DHT22;5334;48.928;12.704;2023-04-23T07:12:43;14.30;99.90
10572;DHT22;5334;48.928;12.704;2023-04-23T07:15:10;14.10;99.90
10572;DHT22;5334;48.928;12.704;2023-04-23T07:17:35;14.10;99.90
10572;DHT22;5334;48.928;12.704;2023-04-23T07:20:01;14.10;99.90
10572;DHT22;5334;48.928;12.704;2023-04-23T07:22:31;14.20;99.90
10572;DHT22;5334;48.928;12.704;2023-04-23T07:24:57;14.20;99.90
10572;DHT22;5334;48.928;12.704;2023-04-23T07:27:23;14.20;99.90
10572;DHT22;5334;48.928;12.704;2023-04-23T07:29:49;14.10;99.90
10572;DHT22;5334;48.928;12.704;2023-04-23T07:32:15;14.20;99.90
10572;DHT22;5334;48.928;12.704;2023-04-23T07:34:40;14.20;99.90
10572;DHT22;5334;48.928;12.704;2023-04-23T07:37:06;14.20;99.90
10572;DHT22;5334;48.928;12.704;2023-04-23T07:39:32;14.20;99.90
10572;DHT22;5334;48.928;12.704;2023-04-23T07:41:58;14.20;99.90
10572;DHT22;5334;48.928;12.704;2023-04-23T07:44:24;14.20;99.90
10572;DHT22;5334;48.928;12.704;2023-04-23T07:46:50;14.20;99.90
10572;DHT22;5334;48.928;12.704;2023-04-23T07:49:15;14.20;99.90
10572;DHT22;5334;48.928;12.704;2023-04-23T07:51:41;14.20;99.90
10572;DHT22;5334;48.928;12.704;2023-04-23T07:54:07;14.20;99.90
10572;DHT22;5334;48.928;12.704;2023-04-23T07:56:33;14.20;99.90
10572;DHT22;5334;48.928;12.704;2023-04-23T07:59:00;14.10;99.90
10572;DHT22;5334;48.928;12.704;2023-04-23T08:01:27;14.00;99.90
10572;DHT22;5334;48.928;12.704;2023-04-23T08:03:53;13.90;99.90
10572;DHT22;5334;48.928;12.704;2023-04-23T08:06:21;13.90;99.90
10572;DHT22;5334;48.928;12.704;2023-04-23T08:08:48;13.90;99.90
10572;DHT22;5334;48.928;12.704;2023-04-23T08:11:14;13.90;99.90
10572;DHT22;5334;48.928;12.704;2023-04-23T08:13:39;13.90;99.90
10572;DHT22;5334;48.928;12.704;2023-04-23T08:16:05;13.90;99.90
10572;DHT22;5334;48.928;12.704;2023-04-23T08:18:31;14.00;99.90
10572;DHT22;5334;48.928;12.704;2023-04-23T08:20:57;14.00;99.90
10572;DHT22;5334;48.928;12.704;2023-04-23T08:23:23;14.00;99.90
10572;DHT22;5334;48.928;12.704;2023-04-23T08:25:49;14.00;99.90
10572;DHT22;5334;48.928;12.704;2023-04-23T08:28:16;14.00;99.90
10572;DHT22;5334;48.928;12.704;2023-04-23T08:30:42;14.00;99.90
10572;DHT22;5334;48.928;12.704;2023-04-23T08:33:08;14.00;99.90
10572;DHT22;5334;48.928;12.704;2023-04-23T08:35:33;14.00;99.90
10572;DHT22;5334;48.928;12.704;2023-04-23T08:37:59;14.10;99.90
10572;DHT22;5334;48.928;12.704;2023-04-23T08:40:30;14.10;99.90
10572;DHT22;5334;48.928;12.704;2023-04-23T08:42:56;14.10;99.90
10572;DHT22;5334;48.928;12.704;2023-04-23T08:45:23;14.10;99.90
10572;DHT22;5334;48.928;12.704;2023-04-23T08:47:49;14.00;99.90
10572;DHT22;5334;48.928;12.704;2023-04-23T08:50:17;13.90;99.90
10572;DHT22;5334;48.928;12.704;2023-04-23T08:52:49;13.80;99.90
10572;DHT22;5334;48.928;12.704;2023-04-23T08:55:18;13.70;99.90
10572;DHT22;5334;48.928;12.704;2023-04-23T08:57:45;13.50;99.90
10572;DHT22;5334;48.928;12.704;2023-04-23T09:00:13;13.50;99.90
10572;DHT22;5334;48.928;12.704;2023-04-23T09:02:41;13.40;99.90
10572;DHT22;5334;48.928;12.704;2023-04-23T09:05:07;13.30;99.90
10572;DHT22;5334;48.928;12.704;2023-04-23T09:07:34;13.40;99.90
10572;DHT22;5334;48.928;12.704;2023-04-23T09:10:04;13.40;99.90
10572;DHT22;5334;48.928;12.704;2023-04-23T09:12:31;13.50;99.90
10572;DHT22;5334;48.928;12.704;2023-04-23T09:14:57;13.50;99.90
10572;DHT22;5334;48.928;12.704;2023-04-23T09:17:27;13.50;99.90
10572;DHT22;5334;48.928;12.704;2023-04-23T09:19:53;13.50;99.90
10572;DHT22;5334;48.928;12.704;2023-04-23T09:22:38;13.60;99.90
10572;DHT22;5334;48.928;12.704;2023-04-23T09:25:04;13.60;99.90
10572;DHT22;5334;48.928;12.704;2023-04-23T09:27:30;13.60;99.90
10572;DHT22;5334;48.928;12.704;2023-04-23T09:29:56;13.50;99.90
10572;DHT22;5334;48.928;12.704;2023-04-23T09:32:33;13.40;99.90
10572;DHT22;5334;48.928;12.704;2023-04-23T09:35:02;13.40;99.90
10572;DHT22;5334;48.928;12.704;2023-04-23T09:37:29;13.50;99.90
10572;DHT22;5334;48.928;12.704;2023-04-23T09:40:01;13.50;99.90
10572;DHT22;5334;48.928;12.704;2023-04-23T09:42:29;13.60;99.90
10572;DHT22;5334;48.928;12.704;2023-04-23T09:45:06;13.60;99.90
10572;DHT22;5334;48.928;12.704;2023-04-23T09:47:33;13.70;99.90
10572;DHT22;5334;48.928;12.704;2023-04-23T09:49:59;13.80;99.90
10572;DHT22;5334;48.928;12.704;2023-04-23T09:52:25;13.80;99.90
10572;DHT22;5334;48.928;12.704;2023-04-23T09:54:55;13.60;99.90
10572;DHT22;5334;48.928;12.704;2023-04-23T09:57:24;13.50;99.90
10572;DHT22;5334;48.928;12.704;2023-04-23T09:59:50;13.50;99.90
10572;DHT22;5334;48.928;12.704;2023-04-23T10:02:15;13.40;99.90
10572;DHT22;5334;48.928;12.704;2023-04-23T10:04:42;13.40;99.90
10572;DHT22;5334;48.928;12.704;2023-04-23T10:07:08;13.50;99.90
10572;DHT22;5334;48.928;12.704;2023-04-23T10:09:39;13.60;99.90
10572;DHT22;5334;48.928;12.704;2023-04-23T10:12:06;13.60;99.90
10572;DHT22;5334;48.928;12.704;2023-04-23T10:14:33;13.60;99.90
10572;DHT22;5334;48.928;12.704;2023-04-23T10:17:01;13.60;99.90
10572;DHT22;5334;48.928;12.704;2023-04-23T10:19:27;13.50;99.90
10572;DHT22;5334;48.928;12.704;2023-04-23T10:22:03;13.50;99.90
10572;DHT22;5334;48.928;12.704;2023-04-23T10:24:34;13.50;99.90
10572;DHT22;5334;48.928;12.704;2023-04-23T10:27:03;13.50;99.90
10572;DHT22;5334;48.928;12.704;2023-04-23T10:29:32;13.50;99.90
10572;DHT22;5334;48.928;12.704;2023-04-23T10:32:00;13.40;99.90
10572;DHT22;5334;48.928;12.704;2023-04-23T10:34:27;13.30;99.90
10572;DHT22;5334;48.928;12.704;2023-04-23T10:36:54;13.30;99.90
10572;DHT22;5334;48.928;12.704;2023-04-23T10:39:22;13.20;99.90
10572;DHT22;5334;48.928;12.704;2023-04-23T10:41:48;13.20;99.90
10572;DHT22;5334;48.928;12.704;2023-04-23T10:44:14;13.20;99.90
10572;DHT22;5334;48.928;12.704;2023-04-23T10:46:55;13.30;99.90
10572;DHT22;5334;48.928;12.704;2023-04-23T10:49:23;13.40;99.90
10572;DHT22;5334;48.928;12.704;2023-04-23T10:51:58;13.50;99.90
10572;DHT22;5334;48.928;12.704;2023-04-23T10:54:30;13.60;99.90
10572;DHT22;5334;48.928;12.704;2023-04-23T10:56:59;13.70;99.90
10572;DHT22;5334;48.928;12.704;2023-04-23T10:59:27;13.80;99.90
10572;DHT22;5334;48.928;12.704;2023-04-23T11:01:55;13.90;99.90
10572;DHT22;5334;48.928;12.704;2023-04-23T11:04:27;14.00;99.90
10572;DHT22;5334;48.928;12.704;2023-04-23T11:07:07;14.00;99.90
10572;DHT22;5334;48.928;12.704;2023-04-23T11:09:45;14.00;99.90
10572;DHT22;5334;48.928;12.704;2023-04-23T11:14:50;14.00;99.90
10572;DHT22;5334;48.928;12.704;2023-04-23T11:17:20;14.00;99.90
10572;DHT22;5334;48.928;12.704;2023-04-23T11:20:06;14.10;99.90
10572;DHT22;5334;48.928;12.704;2023-04-23T11:22:47;14.20;99.90
10572;DHT22;5334;48.928;12.704;2023-04-23T11:27:46;14.30;99.90
10572;DHT22;5334;48.928;12.704;2023-04-23T11:30:22;14.40;99.90
10572;DHT22;5334;48.928;12.704;2023-04-23T11:32:53;14.50;99.90
10572;DHT22;5334;48.928;12.704;2023-04-23T11:35:21;14.60;99.90
10572;DHT22;5334;48.928;12.704;2023-04-23T11:37:48;14.60;99.90
10572;DHT22;5334;48.928;12.704;2023-04-23T11:40:16;14.60;99.90
10572;DHT22;5334;48.928;12.704;2023-04-23T11:42:51;14.70;99.90
10572;DHT22;5334;48.928;12.704;2023-04-23T11:45:20;14.80;99.90
10572;DHT22;5334;48.928;12.704;2023-04-23T11:47:48;15.00;99.90
10572;DHT22;5334;48.928;12.704;2023-04-23T11:50:23;15.20;99.90
10572;DHT22;5334;48.928;12.704;2023-04-23T11:52:50;15.30;99.90
10572;DHT22;5334;48.928;12.704;2023-04-23T11:55:17;15.50;99.90
10572;DHT22;5334;48.928;12.704;2023-04-23T11:57:47;15.50;99.90
10572;DHT22;5334;48.928;12.704;2023-04-23T12:00:25;15.80;99.90
10572;DHT22;5334;48.928;12.704;2023-04-23T12:05:26;16.10;99.90
10572;DHT22;5334;48.928;12.704;2023-04-23T12:07:53;16.50;99.90
10572;DHT22;5334;48.928;12.704;2023-04-23T12:10:19;17.10;99.90
10572;DHT22;5334;48.928;12.704;2023-04-23T12:12:52;17.10;99.90
10572;DHT22;5334;48.928;12.704;2023-04-23T12:15:19;17.10;99.90
10572;DHT22;5334;48.928;12.704;2023-04-23T12:17:52;17.40;99.90
10572;DHT22;5334;48.928;12.704;2023-04-23T12:20:32;18.40;99.90
10572;DHT22;5334;48.928;12.704;2023-04-23T12:23:03;19.40;99.90
10572;DHT22;5334;48.928;12.704;2023-04-23T12:27:58;20.60;99.90
10572;DHT22;5334;48.928;12.704;2023-04-23T12:30:31;20.80;99.90
10572;DHT22;5334;48.928;12.704;2023-04-23T12:33:00;20.20;99.90
10572;DHT22;5334;48.928;12.704;2023-04-23T12:35:39;19.50;99.90
10572;DHT22;5334;48.928;12.704;2023-04-23T12:38:05;19.10;99.90
10572;DHT22;5334;48.928;12.704;2023-04-23T12:40:31;18.90;99.90
10572;DHT22;5334;48.928;12.704;2023-04-23T12:42:57;18.90;99.90
10572;DHT22;5334;48.928;12.704;2023-04-23T12:45:23;19.00;99.90
10572;DHT22;5334;48.928;12.704;2023-04-23T12:47:48;19.30;99.90
10572;DHT22;5334;48.928;12.704;2023-04-23T12:50:14;19.50;99.90
10572;DHT22;5334;48.928;12.704;2023-04-23T12:52:41;20.10;99.90
10572;DHT22;5334;48.928;12.704;2023-04-23T12:57:33;20.80;99.90
10572;DHT22;5334;48.928;12.704;2023-04-23T12:59:59;20.80;99.90
10572;DHT22;5334;48.928;12.704;2023-04-23T13:02:24;20.90;99.90
10572;DHT22;5334;48.928;12.704;2023-04-23T13:04:50;20.60;99.90
10572;DHT22;5334;48.928;12.704;2023-04-23T13:07:16;20.20;99.90
10572;DHT22;5334;48.928;12.704;2023-04-23T13:09:42;20.20;99.90
10572;DHT22;5334;48.928;12.704;2023-04-23T13:12:07;20.30;99.90
10572;DHT22;5334;48.928;12.704;2023-04-23T13:14:33;20.40;99.90
10572;DHT22;5334;48.928;12.704;2023-04-23T13:16:59;20.50;99.90
10572;DHT22;5334;48.928;12.704;2023-04-23T13:19:25;20.60;99.90
10572;DHT22;5334;48.928;12.704;2023-04-23T13:21:51;20.90;99.90
10572;DHT22;5334;48.928;12.704;2023-04-23T13:24:16;21.00;99.90
10572;DHT22;5334;48.928;12.704;2023-04-23T13:26:42;20.90;99.90
10572;DHT22;5334;48.928;12.704;2023-04-23T13:29:08;20.80;99.90
10572;DHT22;5334;48.928;12.704;2023-04-23T13:31:33;20.60;99.90
10572;DHT22;5334;48.928;12.704;2023-04-23T13:33:59;20.60;99.90
10572;DHT22;5334;48.928;12.704;2023-04-23T13:36:27;20.70;99.90
10572;DHT22;5334;48.928;12.704;2023-04-23T13:38:52;20.90;99.90
10572;DHT22;5334;48.928;12.704;2023-04-23T13:41:18;21.00;99.90
10572;DHT22;5334;48.928;12.704;2023-04-23T13:43:44;21.10;99.90
10572;DHT22;5334;48.928;12.704;2023-04-23T13:46:10;21.20;99.90
10572;DHT22;5334;48.928;12.704;2023-04-23T13:51:01;21.40;99.90
10572;DHT22;5334;48.928;12.704;2023-04-23T13:55:54;22.40;99.90
10572;DHT22;5334;48.928;12.704;2023-04-23T13:58:21;23.20;99.00
10572;DHT22;5334;48.928;12.704;2023-04-23T14:00:47;23.40;99.30
10572;DHT22;5334;48.928;12.704;2023-04-23T14:03:13;23.50;99.30
10572;DHT22;5334;48.928;12.704;2023-04-23T14:05:39;23.20;97.00
10572;DHT22;5334;48.928;12.704;2023-04-23T14:08:04;22.90;98.00
10572;DHT22;5334;48.928;12.704;2023-04-23T14:10:30;22.50;98.00
10572;DHT22;5334;48.928;12.704;2023-04-23T14:12:56;22.10;98.80
10572;DHT22;5334;48.928;12.704;2023-04-23T14:15:22;21.90;99.00
10572;DHT22;5334;48.928;12.704;2023-04-23T14:17:48;21.90;98.90
10572;DHT22;5334;48.928;12.704;2023-04-23T14:20:14;21.80;98.60
10572;DHT22;5334;48.928;12.704;2023-04-23T14:22:48;22.00;98.80
10572;DHT22;5334;48.928;12.704;2023-04-23T14:25:30;22.30;98.20
10572;DHT22;5334;48.928;12.704;2023-04-23T14:28:02;22.80;98.40
10572;DHT22;5334;48.928;12.704;2023-04-23T14:30:33;22.80;98.20
10572;DHT22;5334;48.928;12.704;2023-04-23T14:32:59;22.90;97.00
10572;DHT22;5334;48.928;12.704;2023-04-23T14:35:24;22.90;97.50
10572;DHT22;5334;48.928;12.704;2023-04-23T14:37:50;22.70;97.30
10572;DHT22;5334;48.928;12.704;2023-04-23T14:40:16;21.90;98.00
10572;DHT22;5334;48.928;12.704;2023-04-23T14:42:48;21.50;99.20
10572;DHT22;5334;48.928;12.704;2023-04-23T14:45:16;21.20;98.90
10572;DHT22;5334;48.928;12.704;2023-04-23T14:47:44;21.00;99.20
10572;DHT22;5334;48.928;12.704;2023-04-23T14:50:13;21.30;99.40
10572;DHT22;5334;48.928;12.704;2023-04-23T14:52:39;21.90;99.70
10572;DHT22;5334;48.928;12.704;2023-04-23T14:55:05;22.50;98.30
10572;DHT22;5334;48.928;12.704;2023-04-23T14:57:31;22.60;97.40
10572;DHT22;5334;48.928;12.704;2023-04-23T14:59:56;22.50;96.90
10572;DHT22;5334;48.928;12.704;2023-04-23T15:02:22;22.50;97.00
10572;DHT22;5334;48.928;12.704;2023-04-23T15:07:14;22.80;97.00
10572;DHT22;5334;48.928;12.704;2023-04-23T15:09:39;23.20;97.20
10572;DHT22;5334;48.928;12.704;2023-04-23T15:15:02;23.00;96.80
10572;DHT22;5334;48.928;12.704;2023-04-23T15:17:29;22.20;96.80
10572;DHT22;5334;48.928;12.704;2023-04-23T15:19:54;21.40;97.50
10572;DHT22;5334;48.928;12.704;2023-04-23T15:22:21;20.70;97.80
10572;DHT22;5334;48.928;12.704;2023-04-23T15:24:46;20.50;98.70
10572;DHT22;5334;48.928;12.704;2023-04-23T15:27:12;20.40;99.20
10572;DHT22;5334;48.928;12.704;2023-04-23T15:29:39;20.40;99.50
10572;DHT22;5334;48.928;12.704;2023-04-23T15:32:06;20.30;99.20
10572;DHT22;5334;48.928;12.704;2023-04-23T15:34:31;20.70;99.60
10572;DHT22;5334;48.928;12.704;2023-04-23T15:36:57;21.20;99.40
10572;DHT22;5334;48.928;12.704;2023-04-23T15:39:23;21.20;99.30
10572;DHT22;5334;48.928;12.704;2023-04-23T15:41:50;20.90;98.40
10572;DHT22;5334;48.928;12.704;2023-04-23T15:44:15;20.60;99.20
10572;DHT22;5334;48.928;12.704;2023-04-23T15:46:43;20.40;99.20
10572;DHT22;5334;48.928;12.704;2023-04-23T15:49:09;20.40;99.90
10572;DHT22;5334;48.928;12.704;2023-04-23T15:51:35;20.80;99.90